sensor_id;sensor_type;location;lat;lon;timestamp;pressure;altitude;pressure_sealevel;temperature;humidity
36798;BME280;22748;8.426;99.512;2022-09-01T00:02:11;100563.19;;;29.13;67.81
36798;BME280;22748;8.426;99.512;2022-09-01T00:04:43;100569.63;;;29.12;67.54
36798;BME280;22748;8.426;99.512;2022-09-01T00:07:15;100572.31;;;29.12;67.85
36798;BME280;22748;8.426;99.512;2022-09-01T00:09:45;100585.75;;;29.12;67.65
36798;BME280;22748;8.426;99.512;2022-09-01T00:12:17;100589.72;;;29.09;67.61
36798;BME280;22748;8.426;99.512;2022-09-01T00:14:54;100600.47;;;29.09;67.70
36798;BME280;22748;8.426;99.512;2022-09-01T00:17:28;100610.16;;;29.10;68.39
36798;BME280;22748;8.426;99.512;2022-09-01T00:19:58;100615.34;;;29.12;68.29
36798;BME280;22748;8.426;99.512;2022-09-01T00:22:30;100607.69;;;29.09;68.03
36798;BME280;22748;8.426;99.512;2022-09-01T00:25:04;100616.38;;;29.11;68.16
36798;BME280;22748;8.426;99.512;2022-09-01T00:27:36;100624.44;;;29.11;67.87
36798;BME280;22748;8.426;99.512;2022-09-01T00:30:09;100621.75;;;29.11;67.88
36798;BME280;22748;8.426;99.512;2022-09-01T00:32:39;100629.00;;;29.10;68.18
36798;BME280;22748;8.426;99.512;2022-09-01T00:35:16;100638.72;;;29.11;68.44
36798;BME280;22748;8.426;99.512;2022-09-01T00:37:48;100636.25;;;29.10;67.97
36798;BME280;22748;8.426;99.512;2022-09-01T00:40:21;100645.31;;;29.09;68.32
36798;BME280;22748;8.426;99.512;2022-09-01T00:42:52;100651.56;;;29.09;68.45
36798;BME280;22748;8.426;99.512;2022-09-01T00:45:24;100650.69;;;29.09;68.20
36798;BME280;22748;8.426;99.512;2022-09-01T00:47:59;100651.56;;;29.09;68.10
36798;BME280;22748;8.426;99.512;2022-09-01T00:50:35;100659.78;;;29.08;68.34
36798;BME280;22748;8.426;99.512;2022-09-01T00:53:08;100659.78;;;29.08;68.04
36798;BME280;22748;8.426;99.512;2022-09-01T00:55:40;100669.53;;;29.09;67.93
36798;BME280;22748;8.426;99.512;2022-09-01T00:58:10;100664.53;;;29.06;68.34
36798;BME280;22748;8.426;99.512;2022-09-01T01:00:42;100668.25;;;29.05;68.30
36798;BME280;22748;8.426;99.512;2022-09-01T01:03:16;100677.78;;;29.07;68.93
36798;BME280;22748;8.426;99.512;2022-09-01T01:05:48;100676.75;;;29.02;68.67
36798;BME280;22748;8.426;99.512;2022-09-01T01:08:27;100687.94;;;29.05;68.44
36798;BME280;22748;8.426;99.512;2022-09-01T01:11:05;100674.25;;;29.07;68.77
36798;BME280;22748;8.426;99.512;2022-09-01T01:13:51;100681.31;;;29.08;68.37
36798;BME280;22748;8.426;99.512;2022-09-01T01:16:27;100682.56;;;29.12;68.49
36798;BME280;22748;8.426;99.512;2022-09-01T01:18:59;100691.25;;;29.14;68.44
36798;BME280;22748;8.426;99.512;2022-09-01T01:21:35;100692.91;;;29.15;68.84
36798;BME280;22748;8.426;99.512;2022-09-01T01:24:27;100701.59;;;29.17;68.75
36798;BME280;22748;8.426;99.512;2022-09-01T01:27:00;100700.56;;;29.18;68.67
36798;BME280;22748;8.426;99.512;2022-09-01T01:29:33;100712.34;;;29.17;68.05
36798;BME280;22748;8.426;99.512;2022-09-01T01:32:04;100718.53;;;29.18;68.16
36798;BME280;22748;8.426;99.512;2022-09-01T01:34:40;100718.34;;;29.19;68.42
36798;BME280;22748;8.426;99.512;2022-09-01T01:37:14;100721.22;;;29.18;68.55
36798;BME280;22748;8.426;99.512;2022-09-01T01:39:46;100727.22;;;29.20;68.58
36798;BME280;22748;8.426;99.512;2022-09-01T01:42:16;100728.06;;;29.20;68.44
36798;BME280;22748;8.426;99.512;2022-09-01T01:44:45;100728.66;;;29.22;68.59
36798;BME280;22748;8.426;99.512;2022-09-01T01:47:15;100737.59;;;29.23;69.20
36798;BME280;22748;8.426;99.512;2022-09-01T01:49:46;100744.22;;;29.20;68.46
36798;BME280;22748;8.426;99.512;2022-09-01T01:52:16;100744.63;;;29.17;68.58
36798;BME280;22748;8.426;99.512;2022-09-01T01:54:48;100747.91;;;29.19;68.82
36798;BME280;22748;8.426;99.512;2022-09-01T01:57:18;100746.66;;;29.22;68.76
36798;BME280;22748;8.426;99.512;2022-09-01T01:59:49;100751.84;;;29.23;68.58
36798;BME280;22748;8.426;99.512;2022-09-01T02:02:21;100755.78;;;29.27;68.89
36798;BME280;22748;8.426;99.512;2022-09-01T02:04:50;100756.59;;;29.28;68.49
36798;BME280;22748;8.426;99.512;2022-09-01T02:07:21;100750.19;;;29.29;68.72
36798;BME280;22748;8.426;99.512;2022-09-01T02:09:52;100758.03;;;29.30;68.86
36798;BME280;22748;8.426;99.512;2022-09-01T02:12:23;100756.59;;;29.35;68.59
36798;BME280;22748;8.426;99.512;2022-09-01T02:14:53;100766.09;;;29.37;68.90
36798;BME280;22748;8.426;99.512;2022-09-01T02:17:26;100769.41;;;29.39;68.91
36798;BME280;22748;8.426;99.512;2022-09-01T02:19:58;100773.34;;;29.37;69.02
36798;BME280;22748;8.426;99.512;2022-09-01T02:22:28;100774.16;;;29.37;68.90
36798;BME280;22748;8.426;99.512;2022-09-01T02:25:00;100776.47;;;29.40;68.67
36798;BME280;22748;8.426;99.512;2022-09-01T02:27:34;100772.31;;;29.44;69.08
36798;BME280;22748;8.426;99.512;2022-09-01T02:30:07;100763.63;;;29.49;69.29
36798;BME280;22748;8.426;99.512;2022-09-01T02:32:38;100764.00;;;29.52;68.57
36798;BME280;22748;8.426;99.512;2022-09-01T02:35:12;100753.03;;;29.54;68.59
36798;BME280;22748;8.426;99.512;2022-09-01T02:37:42;100758.00;;;29.57;68.55
36798;BME280;22748;8.426;99.512;2022-09-01T02:40:18;100753.22;;;29.59;68.16
36798;BME280;22748;8.426;99.512;2022-09-01T02:42:49;100750.75;;;29.64;68.35
36798;BME280;22748;8.426;99.512;2022-09-01T02:45:21;100743.28;;;29.66;67.95
36798;BME280;22748;8.426;99.512;2022-09-01T02:47:55;100745.38;;;29.64;68.21
36798;BME280;22748;8.426;99.512;2022-09-01T02:50:25;100745.97;;;29.66;68.32
36798;BME280;22748;8.426;99.512;2022-09-01T02:52:55;100748.28;;;29.69;68.38
36798;BME280;22748;8.426;99.512;2022-09-01T02:55:32;100752.38;;;29.65;68.69
36798;BME280;22748;8.426;99.512;2022-09-01T02:58:05;100742.88;;;29.69;68.60
36798;BME280;22748;8.426;99.512;2022-09-01T03:00:43;100752.41;;;29.72;68.27
36798;BME280;22748;8.426;99.512;2022-09-01T03:03:15;100754.44;;;29.77;68.13
36798;BME280;22748;8.426;99.512;2022-09-01T03:05:49;100755.28;;;29.84;68.56
36798;BME280;22748;8.426;99.512;2022-09-01T03:08:24;100746.94;;;29.92;68.14
36798;BME280;22748;8.426;99.512;2022-09-01T03:10:56;100749.00;;;29.97;68.06
36798;BME280;22748;8.426;99.512;2022-09-01T03:13:33;100741.13;;;29.95;68.05
36798;BME280;22748;8.426;99.512;2022-09-01T03:16:06;100740.28;;;30.01;66.87
36798;BME280;22748;8.426;99.512;2022-09-01T03:18:37;100731.56;;;30.06;66.81
36798;BME280;22748;8.426;99.512;2022-09-01T03:21:11;100728.22;;;30.10;66.85
36798;BME280;22748;8.426;99.512;2022-09-01T03:23:42;100730.28;;;30.15;66.88
36798;BME280;22748;8.426;99.512;2022-09-01T03:26:17;100731.94;;;30.16;66.72
36798;BME280;22748;8.426;99.512;2022-09-01T03:28:50;100730.69;;;30.19;66.79
36798;BME280;22748;8.426;99.512;2022-09-01T03:31:24;100728.34;;;30.22;66.59
36798;BME280;22748;8.426;99.512;2022-09-01T03:33:54;100720.25;;;30.29;66.30
36798;BME280;22748;8.426;99.512;2022-09-01T03:36:25;100728.75;;;30.32;66.14
36798;BME280;22748;8.426;99.512;2022-09-01T03:38:56;100730.19;;;30.35;65.61
36798;BME280;22748;8.426;99.512;2022-09-01T03:41:29;100725.41;;;30.37;65.60
36798;BME280;22748;8.426;99.512;2022-09-01T03:43:59;100709.44;;;30.42;65.41
36798;BME280;22748;8.426;99.512;2022-09-01T03:46:29;100712.28;;;30.47;65.45
36798;BME280;22748;8.426;99.512;2022-09-01T03:48:59;100712.91;;;30.49;65.35
36798;BME280;22748;8.426;99.512;2022-09-01T03:51:34;100707.66;;;30.54;64.73
36798;BME280;22748;8.426;99.512;2022-09-01T03:54:07;100694.38;;;30.60;64.18
36798;BME280;22748;8.426;99.512;2022-09-01T03:56:38;100699.31;;;30.63;64.60
36798;BME280;22748;8.426;99.512;2022-09-01T03:59:11;100695.16;;;30.67;64.44
36798;BME280;22748;8.426;99.512;2022-09-01T04:01:44;100694.09;;;30.68;64.40
36798;BME280;22748;8.426;99.512;2022-09-01T04:04:23;100692.00;;;30.70;64.08
36798;BME280;22748;8.426;99.512;2022-09-01T04:06:57;100676.44;;;30.72;64.28
36798;BME280;22748;8.426;99.512;2022-09-01T04:09:27;100673.72;;;30.72;63.66
36798;BME280;22748;8.426;99.512;2022-09-01T04:11:58;100679.72;;;30.74;63.67
36798;BME280;22748;8.426;99.512;2022-09-01T04:14:29;100672.84;;;30.78;63.35
36798;BME280;22748;8.426;99.512;2022-09-01T04:16:58;100673.84;;;30.84;63.24
36798;BME280;22748;8.426;99.512;2022-09-01T04:19:43;100664.53;;;30.86;63.12
36798;BME280;22748;8.426;99.512;2022-09-01T04:22:15;100662.66;;;30.87;62.99
36798;BME280;22748;8.426;99.512;2022-09-01T04:24:50;100658.06;;;30.87;62.98
36798;BME280;22748;8.426;99.512;2022-09-01T04:27:21;100653.06;;;30.91;62.89
36798;BME280;22748;8.426;99.512;2022-09-01T04:29:55;100650.97;;;30.93;62.17
36798;BME280;22748;8.426;99.512;2022-09-01T04:32:27;100652.41;;;30.95;61.94
36798;BME280;22748;8.426;99.512;2022-09-01T04:34:58;100649.63;;;31.02;61.68
36798;BME280;22748;8.426;99.512;2022-09-01T04:37:30;100644.84;;;31.04;61.67
36798;BME280;22748;8.426;99.512;2022-09-01T04:40:04;100644.25;;;31.02;62.13
36798;BME280;22748;8.426;99.512;2022-09-01T04:42:36;100635.13;;;31.03;62.25
36798;BME280;22748;8.426;99.512;2022-09-01T04:45:09;100631.56;;;31.03;60.94
36798;BME280;22748;8.426;99.512;2022-09-01T04:47:42;100630.00;;;31.13;60.95
36798;BME280;22748;8.426;99.512;2022-09-01T04:50:14;100626.63;;;31.18;61.71
36798;BME280;22748;8.426;99.512;2022-09-01T04:52:48;100618.09;;;31.21;61.44
36798;BME280;22748;8.426;99.512;2022-09-01T04:55:19;100611.66;;;31.22;61.32
36798;BME280;22748;8.426;99.512;2022-09-01T04:57:52;100607.91;;;31.23;61.15
36798;BME280;22748;8.426;99.512;2022-09-01T05:00:25;100606.03;;;31.24;61.12
36798;BME280;22748;8.426;99.512;2022-09-01T05:02:59;100603.72;;;31.27;61.02
36798;BME280;22748;8.426;99.512;2022-09-01T05:05:37;100598.69;;;31.31;60.11
36798;BME280;22748;8.426;99.512;2022-09-01T05:08:11;100598.00;;;31.35;60.18
36798;BME280;22748;8.426;99.512;2022-09-01T05:10:44;100579.28;;;31.41;59.56
36798;BME280;22748;8.426;99.512;2022-09-01T05:13:19;100583.31;;;31.50;59.60
36798;BME280;22748;8.426;99.512;2022-09-01T05:16:01;100573.50;;;31.55;59.95
36798;BME280;22748;8.426;99.512;2022-09-01T05:18:32;100575.50;;;31.60;60.14
36798;BME280;22748;8.426;99.512;2022-09-01T05:21:07;100566.81;;;31.58;60.11
36798;BME280;22748;8.426;99.512;2022-09-01T05:23:38;100567.84;;;31.57;60.17
36798;BME280;22748;8.426;99.512;2022-09-01T05:26:13;100553.16;;;31.53;60.07
36798;BME280;22748;8.426;99.512;2022-09-01T05:28:50;100551.91;;;31.55;60.10
36798;BME280;22748;8.426;99.512;2022-09-01T05:31:21;100534.16;;;31.60;59.59
36798;BME280;22748;8.426;99.512;2022-09-01T05:33:54;100536.44;;;31.63;59.03
36798;BME280;22748;8.426;99.512;2022-09-01T05:36:25;100533.03;;;31.67;58.79
36798;BME280;22748;8.426;99.512;2022-09-01T05:38:59;100523.88;;;31.68;59.08
36798;BME280;22748;8.426;99.512;2022-09-01T05:41:30;100518.03;;;31.71;59.36
36798;BME280;22748;8.426;99.512;2022-09-01T05:44:04;100506.31;;;31.77;59.73
36798;BME280;22748;8.426;99.512;2022-09-01T05:46:37;100498.31;;;31.83;59.04
36798;BME280;22748;8.426;99.512;2022-09-01T05:49:11;100493.16;;;31.81;58.98
36798;BME280;22748;8.426;99.512;2022-09-01T05:51:43;100490.34;;;31.88;59.17
36798;BME280;22748;8.426;99.512;2022-09-01T05:54:16;100487.78;;;31.93;59.07
36798;BME280;22748;8.426;99.512;2022-09-01T05:56:49;100477.56;;;31.95;58.75
36798;BME280;22748;8.426;99.512;2022-09-01T05:59:21;100472.50;;;31.87;58.46
36798;BME280;22748;8.426;99.512;2022-09-01T06:01:52;100464.06;;;31.95;58.47
36798;BME280;22748;8.426;99.512;2022-09-01T06:04:24;100464.19;;;32.00;57.38
36798;BME280;22748;8.426;99.512;2022-09-01T06:06:53;100454.56;;;32.04;57.58
36798;BME280;22748;8.426;99.512;2022-09-01T06:09:23;100451.38;;;32.07;58.17
36798;BME280;22748;8.426;99.512;2022-09-01T06:11:53;100451.38;;;32.07;58.76
36798;BME280;22748;8.426;99.512;2022-09-01T06:14:27;100441.56;;;32.01;58.31
36798;BME280;22748;8.426;99.512;2022-09-01T06:16:57;100422.06;;;31.99;57.75
36798;BME280;22748;8.426;99.512;2022-09-01T06:19:30;100420.41;;;31.98;58.15
36798;BME280;22748;8.426;99.512;2022-09-01T06:22:03;100420.75;;;32.02;58.03
36798;BME280;22748;8.426;99.512;2022-09-01T06:24:33;100415.56;;;32.12;57.01
36798;BME280;22748;8.426;99.512;2022-09-01T06:27:06;100404.19;;;32.22;57.41
36798;BME280;22748;8.426;99.512;2022-09-01T06:29:45;100394.06;;;32.29;56.36
36798;BME280;22748;8.426;99.512;2022-09-01T06:32:20;100380.44;;;32.24;55.79
36798;BME280;22748;8.426;99.512;2022-09-01T06:34:51;100384.91;;;32.30;55.79
36798;BME280;22748;8.426;99.512;2022-09-01T06:37:25;100362.56;;;32.34;55.83
36798;BME280;22748;8.426;99.512;2022-09-01T06:39:58;100365.47;;;32.45;55.78
36798;BME280;22748;8.426;99.512;2022-09-01T06:42:28;100357.34;;;32.56;55.54
36798;BME280;22748;8.426;99.512;2022-09-01T06:45:02;100357.69;;;32.60;55.41
36798;BME280;22748;8.426;99.512;2022-09-01T06:47:36;100356.13;;;32.64;54.78
36798;BME280;22748;8.426;99.512;2022-09-01T06:50:10;100347.56;;;32.67;54.45
36798;BME280;22748;8.426;99.512;2022-09-01T06:52:41;100354.94;;;32.72;54.36
36798;BME280;22748;8.426;99.512;2022-09-01T06:55:13;100349.53;;;32.72;54.45
36798;BME280;22748;8.426;99.512;2022-09-01T06:57:43;100343.88;;;32.73;54.14
36798;BME280;22748;8.426;99.512;2022-09-01T07:00:24;100338.72;;;32.72;54.28
36798;BME280;22748;8.426;99.512;2022-09-01T07:02:56;100336.50;;;32.69;55.42
36798;BME280;22748;8.426;99.512;2022-09-01T07:05:28;100334.25;;;32.66;55.51
36798;BME280;22748;8.426;99.512;2022-09-01T07:08:00;100327.91;;;32.72;54.66
36798;BME280;22748;8.426;99.512;2022-09-01T07:10:40;100311.19;;;32.75;54.05
36798;BME280;22748;8.426;99.512;2022-09-01T07:13:16;100313.66;;;32.76;53.65
36798;BME280;22748;8.426;99.512;2022-09-01T07:15:50;100315.16;;;32.84;54.14
36798;BME280;22748;8.426;99.512;2022-09-01T07:18:25;100316.31;;;32.88;53.91
36798;BME280;22748;8.426;99.512;2022-09-01T07:21:00;100315.31;;;32.94;53.68
36798;BME280;22748;8.426;99.512;2022-09-01T07:23:33;100299.75;;;33.02;53.15
36798;BME280;22748;8.426;99.512;2022-09-01T07:26:07;100276.31;;;33.07;53.00
36798;BME280;22748;8.426;99.512;2022-09-01T07:28:45;100275.34;;;33.13;53.16
36798;BME280;22748;8.426;99.512;2022-09-01T07:31:20;100265.25;;;33.09;53.12
36798;BME280;22748;8.426;99.512;2022-09-01T07:33:53;100258.28;;;33.13;53.20
36798;BME280;22748;8.426;99.512;2022-09-01T07:36:28;100255.34;;;33.14;53.65
36798;BME280;22748;8.426;99.512;2022-09-01T07:39:01;100236.16;;;33.16;52.52
36798;BME280;22748;8.426;99.512;2022-09-01T07:41:32;100237.28;;;33.20;51.68
36798;BME280;22748;8.426;99.512;2022-09-01T07:44:03;100224.41;;;33.27;51.46
36798;BME280;22748;8.426;99.512;2022-09-01T07:46:38;100235.31;;;33.32;51.90
36798;BME280;22748;8.426;99.512;2022-09-01T07:49:09;100237.84;;;33.39;52.18
36798;BME280;22748;8.426;99.512;2022-09-01T07:51:39;100236.75;;;33.40;52.26
36798;BME280;22748;8.426;99.512;2022-09-01T07:54:12;100239.75;;;33.38;52.34
36798;BME280;22748;8.426;99.512;2022-09-01T07:56:45;100241.38;;;33.39;52.36
36798;BME280;22748;8.426;99.512;2022-09-01T07:59:14;100238.09;;;33.37;52.41
36798;BME280;22748;8.426;99.512;2022-09-01T08:01:48;100241.88;;;33.36;51.75
36798;BME280;22748;8.426;99.512;2022-09-01T08:04:18;100237.63;;;33.07;53.13
36798;BME280;22748;8.426;99.512;2022-09-01T08:06:49;100257.53;;;33.00;54.03
36798;BME280;22748;8.426;99.512;2022-09-01T08:09:19;100259.06;;;32.96;54.57
36798;BME280;22748;8.426;99.512;2022-09-01T08:11:49;100262.22;;;32.59;54.92
36798;BME280;22748;8.426;99.512;2022-09-01T08:14:19;100287.41;;;32.20;55.31
36798;BME280;22748;8.426;99.512;2022-09-01T08:16:51;100290.34;;;32.18;54.48
36798;BME280;22748;8.426;99.512;2022-09-01T08:19:22;100296.75;;;31.76;55.67
36798;BME280;22748;8.426;99.512;2022-09-01T08:21:52;100291.94;;;31.55;56.11
36798;BME280;22748;8.426;99.512;2022-09-01T08:24:22;100281.75;;;31.69;56.08
36798;BME280;22748;8.426;99.512;2022-09-01T08:26:53;100287.56;;;31.89;56.24
36798;BME280;22748;8.426;99.512;2022-09-01T08:29:23;100296.63;;;31.71;57.35
36798;BME280;22748;8.426;99.512;2022-09-01T08:31:55;100309.97;;;31.31;58.56
36798;BME280;22748;8.426;99.512;2022-09-01T08:34:26;100311.97;;;31.12;59.49
36798;BME280;22748;8.426;99.512;2022-09-01T08:36:58;100320.16;;;30.75;60.95
36798;BME280;22748;8.426;99.512;2022-09-01T08:39:28;100322.75;;;30.51;62.09
36798;BME280;22748;8.426;99.512;2022-09-01T08:42:06;100321.97;;;30.63;62.88
36798;BME280;22748;8.426;99.512;2022-09-01T08:44:45;100347.22;;;29.94;64.07
36798;BME280;22748;8.426;99.512;2022-09-01T08:47:21;100345.50;;;30.37;63.36
36798;BME280;22748;8.426;99.512;2022-09-01T08:49:53;100319.56;;;30.73;62.34
36798;BME280;22748;8.426;99.512;2022-09-01T08:52:34;100324.38;;;31.01;61.02
36798;BME280;22748;8.426;99.512;2022-09-01T08:55:10;100323.25;;;31.21;61.14
36798;BME280;22748;8.426;99.512;2022-09-01T08:57:44;100308.69;;;31.33;61.05
36798;BME280;22748;8.426;99.512;2022-09-01T09:00:21;100315.44;;;31.43;60.67
36798;BME280;22748;8.426;99.512;2022-09-01T09:03:06;100310.13;;;31.48;60.66
36798;BME280;22748;8.426;99.512;2022-09-01T09:05:56;100298.31;;;31.49;60.34
36798;BME280;22748;8.426;99.512;2022-09-01T09:08:51;100300.28;;;31.53;60.11
36798;BME280;22748;8.426;99.512;2022-09-01T09:11:36;100310.25;;;31.53;59.57
36798;BME280;22748;8.426;99.512;2022-09-01T09:14:14;100308.13;;;31.55;59.62
36798;BME280;22748;8.426;99.512;2022-09-01T09:16:48;100299.22;;;31.54;59.83
36798;BME280;22748;8.426;99.512;2022-09-01T09:19:22;100296.53;;;31.54;60.19
36798;BME280;22748;8.426;99.512;2022-09-01T09:21:56;100302.75;;;31.55;60.02
36798;BME280;22748;8.426;99.512;2022-09-01T09:24:29;100291.50;;;31.58;60.00
36798;BME280;22748;8.426;99.512;2022-09-01T09:27:18;100272.59;;;31.58;60.03
36798;BME280;22748;8.426;99.512;2022-09-01T09:29:50;100239.63;;;31.56;59.44
36798;BME280;22748;8.426;99.512;2022-09-01T09:32:22;100230.94;;;31.54;59.50
36798;BME280;22748;8.426;99.512;2022-09-01T09:34:55;100231.16;;;31.52;59.70
36798;BME280;22748;8.426;99.512;2022-09-01T09:37:29;100248.88;;;31.48;60.24
36798;BME280;22748;8.426;99.512;2022-09-01T09:40:08;100260.53;;;31.49;60.14
36798;BME280;22748;8.426;99.512;2022-09-01T09:43:37;100285.94;;;31.29;59.81
36798;BME280;22748;8.426;99.512;2022-09-01T09:46:25;100313.13;;;31.16;60.47
36798;BME280;22748;8.426;99.512;2022-09-01T09:49:09;100347.16;;;31.17;60.62
36798;BME280;22748;8.426;99.512;2022-09-01T09:51:43;100358.25;;;31.09;60.58
36798;BME280;22748;8.426;99.512;2022-09-01T09:54:23;100361.19;;;31.07;60.50
36798;BME280;22748;8.426;99.512;2022-09-01T09:57:09;100369.03;;;31.09;60.65
36798;BME280;22748;8.426;99.512;2022-09-01T09:59:45;100388.53;;;31.11;60.49
36798;BME280;22748;8.426;99.512;2022-09-01T10:02:24;100418.56;;;31.14;61.09
36798;BME280;22748;8.426;99.512;2022-09-01T10:05:00;100407.19;;;31.12;60.67
36798;BME280;22748;8.426;99.512;2022-09-01T10:07:32;100435.88;;;31.07;60.80
36798;BME280;22748;8.426;99.512;2022-09-01T10:10:06;100428.84;;;31.06;60.71
36798;BME280;22748;8.426;99.512;2022-09-01T10:12:36;100423.09;;;31.02;60.24
36798;BME280;22748;8.426;99.512;2022-09-01T10:15:08;100443.47;;;30.98;60.38
36798;BME280;22748;8.426;99.512;2022-09-01T10:17:41;100446.84;;;30.93;60.63
36798;BME280;22748;8.426;99.512;2022-09-01T10:20:14;100448.34;;;30.89;60.67
36798;BME280;22748;8.426;99.512;2022-09-01T10:22:50;100444.63;;;30.90;60.97
36798;BME280;22748;8.426;99.512;2022-09-01T10:25:21;100438.63;;;30.88;60.36
36798;BME280;22748;8.426;99.512;2022-09-01T10:27:53;100445.88;;;30.88;60.65
36798;BME280;22748;8.426;99.512;2022-09-01T10:30:29;100453.16;;;30.87;60.75
36798;BME280;22748;8.426;99.512;2022-09-01T10:33:02;100455.63;;;30.89;61.32
36798;BME280;22748;8.426;99.512;2022-09-01T10:35:34;100455.22;;;30.85;60.83
36798;BME280;22748;8.426;99.512;2022-09-01T10:38:09;100471.63;;;30.65;61.29
36798;BME280;22748;8.426;99.512;2022-09-01T10:40:51;100475.31;;;30.71;61.88
36798;BME280;22748;8.426;99.512;2022-09-01T10:43:39;100472.75;;;30.76;61.21
36798;BME280;22748;8.426;99.512;2022-09-01T10:52:57;100473.50;;;30.83;61.00
36798;BME280;22748;8.426;99.512;2022-09-01T10:55:40;100484.28;;;30.83;61.89
36798;BME280;22748;8.426;99.512;2022-09-01T10:58:41;100501.94;;;30.86;62.14
36798;BME280;22748;8.426;99.512;2022-09-01T11:01:16;100502.28;;;30.89;61.72
36798;BME280;22748;8.426;99.512;2022-09-01T11:04:12;100500.03;;;30.86;62.08
36798;BME280;22748;8.426;99.512;2022-09-01T11:06:57;100507.50;;;30.84;62.22
36798;BME280;22748;8.426;99.512;2022-09-01T11:09:31;100513.34;;;30.81;61.94
36798;BME280;22748;8.426;99.512;2022-09-01T11:12:27;100518.38;;;30.78;62.24
36798;BME280;22748;8.426;99.512;2022-09-01T11:15:02;100508.00;;;30.74;62.05
36798;BME280;22748;8.426;99.512;2022-09-01T11:17:34;100511.38;;;30.70;62.56
36798;BME280;22748;8.426;99.512;2022-09-01T11:20:07;100521.56;;;30.68;62.54
36798;BME280;22748;8.426;99.512;2022-09-01T11:22:43;100526.81;;;30.63;62.59
36798;BME280;22748;8.426;99.512;2022-09-01T11:25:34;100540.75;;;30.60;62.52
36798;BME280;22748;8.426;99.512;2022-09-01T11:28:08;100541.38;;;30.55;62.53
36798;BME280;22748;8.426;99.512;2022-09-01T11:30:48;100557.19;;;30.51;62.75
36798;BME280;22748;8.426;99.512;2022-09-01T11:36:27;100566.16;;;30.45;63.23
36798;BME280;22748;8.426;99.512;2022-09-01T11:39:30;100569.31;;;30.42;63.74
36798;BME280;22748;8.426;99.512;2022-09-01T11:42:04;100571.34;;;30.47;63.21
36798;BME280;22748;8.426;99.512;2022-09-01T11:44:40;100566.78;;;30.47;63.13
36798;BME280;22748;8.426;99.512;2022-09-01T11:47:15;100558.00;;;30.27;64.29
36798;BME280;22748;8.426;99.512;2022-09-01T11:49:49;100561.50;;;30.34;63.58
36798;BME280;22748;8.426;99.512;2022-09-01T11:52:25;100557.41;;;30.25;63.86
36798;BME280;22748;8.426;99.512;2022-09-01T11:54:59;100553.25;;;30.29;63.83
36798;BME280;22748;8.426;99.512;2022-09-01T11:57:31;100560.38;;;30.17;63.50
36798;BME280;22748;8.426;99.512;2022-09-01T12:00:05;100561.72;;;30.01;64.08
36798;BME280;22748;8.426;99.512;2022-09-01T12:02:44;100576.19;;;30.06;64.12
36798;BME280;22748;8.426;99.512;2022-09-01T12:05:29;100579.03;;;30.11;64.14
36798;BME280;22748;8.426;99.512;2022-09-01T12:08:03;100579.59;;;29.95;64.58
36798;BME280;22748;8.426;99.512;2022-09-01T12:10:37;100569.59;;;30.02;64.05
36798;BME280;22748;8.426;99.512;2022-09-01T12:13:09;100567.09;;;30.07;64.08
36798;BME280;22748;8.426;99.512;2022-09-01T12:15:40;100569.13;;;30.12;63.60
36798;BME280;22748;8.426;99.512;2022-09-01T12:18:19;100570.75;;;30.13;63.90
36798;BME280;22748;8.426;99.512;2022-09-01T12:20:58;100578.78;;;30.20;64.12
36798;BME280;22748;8.426;99.512;2022-09-01T12:23:33;100578.97;;;30.25;64.03
36798;BME280;22748;8.426;99.512;2022-09-01T12:26:10;100588.47;;;30.27;63.48
36798;BME280;22748;8.426;99.512;2022-09-01T12:28:45;100585.56;;;30.29;63.80
36798;BME280;22748;8.426;99.512;2022-09-01T12:31:17;100593.22;;;30.32;63.62
36798;BME280;22748;8.426;99.512;2022-09-01T12:33:53;100588.44;;;30.34;63.76
36798;BME280;22748;8.426;99.512;2022-09-01T12:36:28;100591.75;;;30.36;63.29
36798;BME280;22748;8.426;99.512;2022-09-01T12:39:20;100601.31;;;30.32;63.15
36798;BME280;22748;8.426;99.512;2022-09-01T12:42:06;100603.97;;;30.00;63.88
36798;BME280;22748;8.426;99.512;2022-09-01T12:44:47;100611.94;;;29.88;64.64
36798;BME280;22748;8.426;99.512;2022-09-01T12:47:46;100631.97;;;29.99;64.23
36798;BME280;22748;8.426;99.512;2022-09-01T12:50:34;100621.75;;;30.08;64.37
36798;BME280;22748;8.426;99.512;2022-09-01T12:53:21;100625.03;;;30.17;63.69
36798;BME280;22748;8.426;99.512;2022-09-01T12:56:04;100621.88;;;30.20;63.56
36798;BME280;22748;8.426;99.512;2022-09-01T12:58:37;100620.00;;;30.20;64.01
36798;BME280;22748;8.426;99.512;2022-09-01T13:01:29;100615.88;;;30.18;63.69
36798;BME280;22748;8.426;99.512;2022-09-01T13:04:29;100621.66;;;30.21;64.05
36798;BME280;22748;8.426;99.512;2022-09-01T13:07:04;100604.84;;;30.26;63.66
36798;BME280;22748;8.426;99.512;2022-09-01T13:09:41;100600.09;;;30.28;63.98
36798;BME280;22748;8.426;99.512;2022-09-01T13:12:15;100604.44;;;30.29;63.33
36798;BME280;22748;8.426;99.512;2022-09-01T13:14:50;100606.69;;;30.32;63.55
36798;BME280;22748;8.426;99.512;2022-09-01T13:17:19;100612.91;;;30.32;63.89
36798;BME280;22748;8.426;99.512;2022-09-01T13:19:50;100610.00;;;30.34;63.39
36798;BME280;22748;8.426;99.512;2022-09-01T13:22:20;100607.50;;;30.32;63.34
36798;BME280;22748;8.426;99.512;2022-09-01T13:24:52;100611.63;;;30.35;63.80
36798;BME280;22748;8.426;99.512;2022-09-01T13:27:22;100617.03;;;30.35;63.41
36798;BME280;22748;8.426;99.512;2022-09-01T13:29:54;100619.13;;;30.33;63.32
36798;BME280;22748;8.426;99.512;2022-09-01T13:32:24;100616.41;;;30.33;63.65
36798;BME280;22748;8.426;99.512;2022-09-01T13:34:54;100618.28;;;30.32;63.81
36798;BME280;22748;8.426;99.512;2022-09-01T13:37:26;100625.56;;;30.32;63.35
36798;BME280;22748;8.426;99.512;2022-09-01T13:39:56;100618.28;;;30.32;63.39